sensor_id;sensor_type;location;lat;lon;timestamp;P1;durP1;ratioP1;P2;durP2;ratioP2
41817;SDS011;27493;51.730;5.294;2023-01-25T00:00:41;29.57;;;17.90;;
41817;SDS011;27493;51.730;5.294;2023-01-25T01:09:11;29.67;;;18.33;;
41817;SDS011;27493;51.730;5.294;2023-01-25T01:14:39;29.07;;;17.97;;
41817;SDS011;27493;51.730;5.294;2023-01-25T01:17:05;30.83;;;18.57;;
41817;SDS011;27493;51.730;5.294;2023-01-25T01:19:30;31.33;;;18.20;;
41817;SDS011;27493;51.730;5.294;2023-01-25T01:21:55;30.20;;;18.70;;
41817;SDS011;27493;51.730;5.294;2023-01-25T01:24:20;31.10;;;18.07;;
41817;SDS011;27493;51.730;5.294;2023-01-25T01:29:49;32.03;;;18.67;;
41817;SDS011;27493;51.730;5.294;2023-01-25T01:32:14;33.50;;;19.37;;
41817;SDS011;27493;51.730;5.294;2023-01-25T01:34:39;30.33;;;18.00;;
41817;SDS011;27493;51.730;5.294;2023-01-25T01:37:04;35.17;;;19.97;;
41817;SDS011;27493;51.730;5.294;2023-01-25T01:39:29;34.30;;;19.37;;
41817;SDS011;27493;51.730;5.294;2023-01-25T01:41:54;33.43;;;19.77;;
41817;SDS011;27493;51.730;5.294;2023-01-25T01:44:20;33.77;;;20.00;;
41817;SDS011;27493;51.730;5.294;2023-01-25T01:46:50;31.10;;;19.40;;
41817;SDS011;27493;51.730;5.294;2023-01-25T01:49:21;35.20;;;19.53;;
41817;SDS011;27493;51.730;5.294;2023-01-25T01:56:54;36.27;;;20.80;;
41817;SDS011;27493;51.730;5.294;2023-01-25T01:59:20;35.30;;;20.23;;
41817;SDS011;27493;51.730;5.294;2023-01-25T02:01:46;34.53;;;19.87;;
41817;SDS011;27493;51.730;5.294;2023-01-25T02:04:11;33.80;;;19.73;;
41817;SDS011;27493;51.730;5.294;2023-01-25T02:06:47;33.80;;;19.97;;
41817;SDS011;27493;51.730;5.294;2023-01-25T02:09:18;33.33;;;19.50;;
41817;SDS011;27493;51.730;5.294;2023-01-25T02:11:44;35.40;;;20.67;;
41817;SDS011;27493;51.730;5.294;2023-01-25T02:14:10;32.00;;;18.83;;
41817;SDS011;27493;51.730;5.294;2023-01-25T02:16:36;34.07;;;20.37;;
41817;SDS011;27493;51.730;5.294;2023-01-25T02:19:01;32.93;;;19.63;;
41817;SDS011;27493;51.730;5.294;2023-01-25T02:21:29;36.47;;;19.53;;
41817;SDS011;27493;51.730;5.294;2023-01-25T02:24:06;33.87;;;19.90;;
41817;SDS011;27493;51.730;5.294;2023-01-25T02:26:31;34.13;;;20.30;;
41817;SDS011;27493;51.730;5.294;2023-01-25T02:29:04;33.53;;;18.83;;
41817;SDS011;27493;51.730;5.294;2023-01-25T02:31:30;31.57;;;19.03;;
41817;SDS011;27493;51.730;5.294;2023-01-25T02:33:55;34.60;;;19.30;;
41817;SDS011;27493;51.730;5.294;2023-01-25T02:36:23;33.70;;;19.77;;
41817;SDS011;27493;51.730;5.294;2023-01-25T02:38:53;37.07;;;21.07;;
41817;SDS011;27493;51.730;5.294;2023-01-25T02:41:27;34.40;;;21.27;;
41817;SDS011;27493;51.730;5.294;2023-01-25T02:43:54;36.47;;;20.83;;
41817;SDS011;27493;51.730;5.294;2023-01-25T02:46:23;36.90;;;20.17;;
41817;SDS011;27493;51.730;5.294;2023-01-25T02:48:51;38.57;;;21.67;;
41817;SDS011;27493;51.730;5.294;2023-01-25T02:51:17;39.33;;;21.43;;
41817;SDS011;27493;51.730;5.294;2023-01-25T02:53:42;34.63;;;20.30;;
41817;SDS011;27493;51.730;5.294;2023-01-25T02:56:07;34.33;;;20.27;;
41817;SDS011;27493;51.730;5.294;2023-01-25T02:58:32;38.43;;;20.50;;
41817;SDS011;27493;51.730;5.294;2023-01-25T03:00:57;36.57;;;20.73;;
41817;SDS011;27493;51.730;5.294;2023-01-25T03:03:23;38.43;;;21.20;;
41817;SDS011;27493;51.730;5.294;2023-01-25T03:05:48;40.07;;;21.87;;
41817;SDS011;27493;51.730;5.294;2023-01-25T03:08:13;36.60;;;21.63;;
41817;SDS011;27493;51.730;5.294;2023-01-25T03:10:38;39.27;;;22.47;;
41817;SDS011;27493;51.730;5.294;2023-01-25T03:13:03;37.40;;;21.53;;
41817;SDS011;27493;51.730;5.294;2023-01-25T03:15:29;40.27;;;22.40;;
41817;SDS011;27493;51.730;5.294;2023-01-25T03:17:57;37.10;;;21.97;;
41817;SDS011;27493;51.730;5.294;2023-01-25T03:20:22;39.83;;;22.27;;
41817;SDS011;27493;51.730;5.294;2023-01-25T03:22:47;39.73;;;23.27;;
41817;SDS011;27493;51.730;5.294;2023-01-25T03:25:12;39.87;;;22.63;;
41817;SDS011;27493;51.730;5.294;2023-01-25T03:27:37;39.87;;;21.93;;
41817;SDS011;27493;51.730;5.294;2023-01-25T03:30:03;41.57;;;23.13;;
41817;SDS011;27493;51.730;5.294;2023-01-25T03:32:28;40.67;;;22.33;;
41817;SDS011;27493;51.730;5.294;2023-01-25T03:34:53;40.83;;;23.27;;
41817;SDS011;27493;51.730;5.294;2023-01-25T03:37:18;39.40;;;22.37;;
41817;SDS011;27493;51.730;5.294;2023-01-25T03:39:44;45.23;;;24.97;;
41817;SDS011;27493;51.730;5.294;2023-01-25T03:42:09;44.70;;;24.30;;
41817;SDS011;27493;51.730;5.294;2023-01-25T03:44:34;43.93;;;24.70;;
41817;SDS011;27493;51.730;5.294;2023-01-25T03:46:59;42.43;;;24.17;;
41817;SDS011;27493;51.730;5.294;2023-01-25T03:49:24;45.00;;;24.03;;
41817;SDS011;27493;51.730;5.294;2023-01-25T03:51:50;51.20;;;26.47;;
41817;SDS011;27493;51.730;5.294;2023-01-25T03:54:15;46.37;;;25.67;;
41817;SDS011;27493;51.730;5.294;2023-01-25T03:56:40;45.87;;;25.33;;
41817;SDS011;27493;51.730;5.294;2023-01-25T03:59:06;47.70;;;26.10;;
41817;SDS011;27493;51.730;5.294;2023-01-25T04:01:31;46.13;;;25.60;;
41817;SDS011;27493;51.730;5.294;2023-01-25T04:03:56;50.17;;;26.27;;
41817;SDS011;27493;51.730;5.294;2023-01-25T04:06:21;48.73;;;26.10;;
41817;SDS011;27493;51.730;5.294;2023-01-25T04:08:47;47.53;;;26.03;;
41817;SDS011;27493;51.730;5.294;2023-01-25T04:11:12;49.63;;;27.13;;
41817;SDS011;27493;51.730;5.294;2023-01-25T04:13:37;50.47;;;27.00;;
41817;SDS011;27493;51.730;5.294;2023-01-25T04:16:03;45.63;;;25.60;;
41817;SDS011;27493;51.730;5.294;2023-01-25T04:18:28;49.63;;;26.97;;
41817;SDS011;27493;51.730;5.294;2023-01-25T04:20:54;49.17;;;26.80;;
41817;SDS011;27493;51.730;5.294;2023-01-25T04:23:20;49.20;;;26.43;;
41817;SDS011;27493;51.730;5.294;2023-01-25T04:25:59;51.17;;;27.07;;
41817;SDS011;27493;51.730;5.294;2023-01-25T04:28:24;51.00;;;27.50;;
41817;SDS011;27493;51.730;5.294;2023-01-25T04:30:50;48.07;;;25.63;;
41817;SDS011;27493;51.730;5.294;2023-01-25T04:33:15;55.07;;;28.60;;
41817;SDS011;27493;51.730;5.294;2023-01-25T04:35:40;52.57;;;27.73;;
41817;SDS011;27493;51.730;5.294;2023-01-25T04:38:06;54.40;;;28.40;;
41817;SDS011;27493;51.730;5.294;2023-01-25T04:40:31;54.87;;;28.70;;
41817;SDS011;27493;51.730;5.294;2023-01-25T04:42:56;55.00;;;28.87;;
41817;SDS011;27493;51.730;5.294;2023-01-25T04:45:22;56.60;;;28.80;;
41817;SDS011;27493;51.730;5.294;2023-01-25T04:47:47;55.40;;;28.60;;
41817;SDS011;27493;51.730;5.294;2023-01-25T04:50:13;54.73;;;28.63;;
41817;SDS011;27493;51.730;5.294;2023-01-25T04:52:38;53.83;;;28.40;;
41817;SDS011;27493;51.730;5.294;2023-01-25T04:55:03;52.53;;;29.10;;
41817;SDS011;27493;51.730;5.294;2023-01-25T04:57:29;58.60;;;29.70;;
41817;SDS011;27493;51.730;5.294;2023-01-25T04:59:54;54.90;;;28.33;;
41817;SDS011;27493;51.730;5.294;2023-01-25T05:02:19;55.80;;;29.70;;
41817;SDS011;27493;51.730;5.294;2023-01-25T05:04:44;54.47;;;29.17;;
41817;SDS011;27493;51.730;5.294;2023-01-25T05:07:09;56.77;;;29.33;;
41817;SDS011;27493;51.730;5.294;2023-01-25T05:09:35;56.40;;;29.53;;
41817;SDS011;27493;51.730;5.294;2023-01-25T05:12:00;56.30;;;30.40;;
41817;SDS011;27493;51.730;5.294;2023-01-25T05:14:25;56.33;;;29.10;;
41817;SDS011;27493;51.730;5.294;2023-01-25T05:16:50;54.63;;;29.40;;
41817;SDS011;27493;51.730;5.294;2023-01-25T05:19:15;61.73;;;30.97;;
41817;SDS011;27493;51.730;5.294;2023-01-25T05:21:41;55.07;;;28.77;;
41817;SDS011;27493;51.730;5.294;2023-01-25T05:24:29;58.03;;;28.83;;
41817;SDS011;27493;51.730;5.294;2023-01-25T05:26:54;60.47;;;30.63;;
41817;SDS011;27493;51.730;5.294;2023-01-25T05:29:29;57.07;;;31.00;;
41817;SDS011;27493;51.730;5.294;2023-01-25T05:31:55;57.70;;;30.87;;
41817;SDS011;27493;51.730;5.294;2023-01-25T05:34:21;58.37;;;31.17;;
41817;SDS011;27493;51.730;5.294;2023-01-25T05:36:46;59.93;;;30.40;;
41817;SDS011;27493;51.730;5.294;2023-01-25T05:39:11;59.80;;;31.07;;
41817;SDS011;27493;51.730;5.294;2023-01-25T05:41:36;59.90;;;32.03;;
41817;SDS011;27493;51.730;5.294;2023-01-25T05:44:02;62.03;;;31.77;;
41817;SDS011;27493;51.730;5.294;2023-01-25T05:46:28;62.13;;;31.97;;
41817;SDS011;27493;51.730;5.294;2023-01-25T05:48:53;63.23;;;32.00;;
41817;SDS011;27493;51.730;5.294;2023-01-25T05:51:18;60.63;;;30.93;;
41817;SDS011;27493;51.730;5.294;2023-01-25T05:53:43;61.63;;;31.30;;
41817;SDS011;27493;51.730;5.294;2023-01-25T05:56:08;58.13;;;31.10;;
41817;SDS011;27493;51.730;5.294;2023-01-25T05:58:37;60.50;;;32.00;;
41817;SDS011;27493;51.730;5.294;2023-01-25T06:01:03;65.30;;;33.37;;
41817;SDS011;27493;51.730;5.294;2023-01-25T06:03:28;63.77;;;32.40;;
41817;SDS011;27493;51.730;5.294;2023-01-25T06:05:57;63.37;;;32.00;;
41817;SDS011;27493;51.730;5.294;2023-01-25T06:08:23;64.60;;;32.43;;
41817;SDS011;27493;51.730;5.294;2023-01-25T06:10:48;70.20;;;33.30;;
41817;SDS011;27493;51.730;5.294;2023-01-25T06:13:13;60.97;;;32.10;;
41817;SDS011;27493;51.730;5.294;2023-01-25T06:15:38;65.23;;;32.00;;
41817;SDS011;27493;51.730;5.294;2023-01-25T06:18:04;63.53;;;32.07;;
41817;SDS011;27493;51.730;5.294;2023-01-25T06:20:29;68.23;;;32.20;;
41817;SDS011;27493;51.730;5.294;2023-01-25T06:22:54;66.33;;;32.97;;
41817;SDS011;27493;51.730;5.294;2023-01-25T06:25:19;63.70;;;33.00;;
41817;SDS011;27493;51.730;5.294;2023-01-25T06:27:44;70.37;;;34.57;;
41817;SDS011;27493;51.730;5.294;2023-01-25T06:30:10;70.30;;;34.63;;
41817;SDS011;27493;51.730;5.294;2023-01-25T06:32:35;66.67;;;33.13;;
41817;SDS011;27493;51.730;5.294;2023-01-25T06:35:00;72.07;;;35.43;;
41817;SDS011;27493;51.730;5.294;2023-01-25T06:37:25;73.07;;;35.00;;
41817;SDS011;27493;51.730;5.294;2023-01-25T06:39:50;70.63;;;34.60;;
41817;SDS011;27493;51.730;5.294;2023-01-25T06:42:16;75.57;;;35.07;;
41817;SDS011;27493;51.730;5.294;2023-01-25T06:44:41;67.00;;;32.53;;
41817;SDS011;27493;51.730;5.294;2023-01-25T06:47:09;74.63;;;34.20;;
41817;SDS011;27493;51.730;5.294;2023-01-25T06:49:36;75.23;;;36.23;;
41817;SDS011;27493;51.730;5.294;2023-01-25T06:52:01;68.70;;;33.27;;
41817;SDS011;27493;51.730;5.294;2023-01-25T06:54:26;74.57;;;34.80;;
41817;SDS011;27493;51.730;5.294;2023-01-25T06:56:51;78.03;;;36.77;;
41817;SDS011;27493;51.730;5.294;2023-01-25T06:59:17;81.67;;;36.87;;
41817;SDS011;27493;51.730;5.294;2023-01-25T07:01:42;79.63;;;35.83;;
41817;SDS011;27493;51.730;5.294;2023-01-25T07:04:07;75.40;;;35.50;;
41817;SDS011;27493;51.730;5.294;2023-01-25T07:06:34;74.43;;;35.13;;
41817;SDS011;27493;51.730;5.294;2023-01-25T07:09:06;71.47;;;34.50;;
41817;SDS011;27493;51.730;5.294;2023-01-25T07:11:32;74.67;;;35.33;;
41817;SDS011;27493;51.730;5.294;2023-01-25T07:13:57;74.97;;;34.73;;
41817;SDS011;27493;51.730;5.294;2023-01-25T07:16:22;71.87;;;34.37;;
41817;SDS011;27493;51.730;5.294;2023-01-25T07:18:48;71.80;;;33.50;;
41817;SDS011;27493;51.730;5.294;2023-01-25T07:21:17;74.40;;;35.07;;
41817;SDS011;27493;51.730;5.294;2023-01-25T07:23:44;71.67;;;34.77;;
41817;SDS011;27493;51.730;5.294;2023-01-25T07:26:19;74.00;;;34.97;;
41817;SDS011;27493;51.730;5.294;2023-01-25T07:28:45;67.93;;;34.33;;
41817;SDS011;27493;51.730;5.294;2023-01-25T07:31:11;72.17;;;35.13;;
41817;SDS011;27493;51.730;5.294;2023-01-25T07:33:36;73.83;;;35.10;;
41817;SDS011;27493;51.730;5.294;2023-01-25T07:36:02;75.13;;;35.33;;
41817;SDS011;27493;51.730;5.294;2023-01-25T07:38:27;72.07;;;34.37;;
41817;SDS011;27493;51.730;5.294;2023-01-25T07:40:53;78.60;;;35.03;;
41817;SDS011;27493;51.730;5.294;2023-01-25T07:43:18;71.73;;;34.37;;
41817;SDS011;27493;51.730;5.294;2023-01-25T07:45:44;74.67;;;36.47;;
41817;SDS011;27493;51.730;5.294;2023-01-25T07:48:12;73.23;;;34.20;;
41817;SDS011;27493;51.730;5.294;2023-01-25T07:50:38;73.57;;;35.10;;
41817;SDS011;27493;51.730;5.294;2023-01-25T07:53:03;77.57;;;34.97;;
41817;SDS011;27493;51.730;5.294;2023-01-25T07:55:29;75.97;;;34.87;;
41817;SDS011;27493;51.730;5.294;2023-01-25T07:57:54;74.97;;;35.47;;
41817;SDS011;27493;51.730;5.294;2023-01-25T08:00:19;75.10;;;34.60;;
41817;SDS011;27493;51.730;5.294;2023-01-25T08:02:48;74.53;;;34.53;;
41817;SDS011;27493;51.730;5.294;2023-01-25T08:05:13;81.00;;;35.73;;
41817;SDS011;27493;51.730;5.294;2023-01-25T08:07:38;76.37;;;35.07;;
41817;SDS011;27493;51.730;5.294;2023-01-25T08:10:03;77.17;;;36.07;;
41817;SDS011;27493;51.730;5.294;2023-01-25T08:12:30;74.80;;;35.40;;
41817;SDS011;27493;51.730;5.294;2023-01-25T08:14:58;74.20;;;35.07;;
41817;SDS011;27493;51.730;5.294;2023-01-25T08:17:23;74.43;;;34.33;;
41817;SDS011;27493;51.730;5.294;2023-01-25T08:19:48;69.47;;;32.37;;
41817;SDS011;27493;51.730;5.294;2023-01-25T08:22:13;79.07;;;35.50;;
41817;SDS011;27493;51.730;5.294;2023-01-25T08:24:39;70.30;;;34.63;;
41817;SDS011;27493;51.730;5.294;2023-01-25T08:27:04;75.30;;;34.83;;
41817;SDS011;27493;51.730;5.294;2023-01-25T08:29:29;83.10;;;36.40;;
41817;SDS011;27493;51.730;5.294;2023-01-25T08:31:54;75.07;;;34.93;;
41817;SDS011;27493;51.730;5.294;2023-01-25T08:34:20;79.90;;;35.50;;
41817;SDS011;27493;51.730;5.294;2023-01-25T08:36:45;76.43;;;34.67;;
41817;SDS011;27493;51.730;5.294;2023-01-25T08:39:11;77.53;;;35.87;;
41817;SDS011;27493;51.730;5.294;2023-01-25T08:41:36;76.80;;;34.60;;
41817;SDS011;27493;51.730;5.294;2023-01-25T08:44:01;75.20;;;34.60;;
41817;SDS011;27493;51.730;5.294;2023-01-25T08:46:28;79.07;;;34.87;;
41817;SDS011;27493;51.730;5.294;2023-01-25T08:48:53;77.60;;;34.90;;
41817;SDS011;27493;51.730;5.294;2023-01-25T08:51:19;72.93;;;33.87;;
41817;SDS011;27493;51.730;5.294;2023-01-25T08:53:44;76.40;;;33.70;;
41817;SDS011;27493;51.730;5.294;2023-01-25T08:56:13;67.23;;;30.80;;
41817;SDS011;27493;51.730;5.294;2023-01-25T08:58:40;65.77;;;31.03;;
41817;SDS011;27493;51.730;5.294;2023-01-25T09:01:06;59.27;;;29.57;;
41817;SDS011;27493;51.730;5.294;2023-01-25T09:03:39;64.27;;;29.37;;
41817;SDS011;27493;51.730;5.294;2023-01-25T09:06:05;62.50;;;29.97;;
41817;SDS011;27493;51.730;5.294;2023-01-25T09:08:30;65.73;;;31.17;;
41817;SDS011;27493;51.730;5.294;2023-01-25T09:11:00;60.67;;;29.07;;
41817;SDS011;27493;51.730;5.294;2023-01-25T09:13:25;58.07;;;28.17;;
41817;SDS011;27493;51.730;5.294;2023-01-25T09:15:50;58.27;;;27.90;;
41817;SDS011;27493;51.730;5.294;2023-01-25T09:18:15;60.20;;;28.47;;
41817;SDS011;27493;51.730;5.294;2023-01-25T09:20:41;58.73;;;28.60;;
41817;SDS011;27493;51.730;5.294;2023-01-25T09:23:06;58.83;;;28.63;;
41817;SDS011;27493;51.730;5.294;2023-01-25T09:25:31;61.37;;;28.50;;
41817;SDS011;27493;51.730;5.294;2023-01-25T09:27:56;57.73;;;27.87;;
41817;SDS011;27493;51.730;5.294;2023-01-25T09:30:21;63.57;;;29.37;;
41817;SDS011;27493;51.730;5.294;2023-01-25T09:32:50;59.40;;;28.47;;
41817;SDS011;27493;51.730;5.294;2023-01-25T09:35:15;59.83;;;28.70;;
41817;SDS011;27493;51.730;5.294;2023-01-25T09:37:40;61.43;;;29.17;;
41817;SDS011;27493;51.730;5.294;2023-01-25T09:40:08;62.17;;;28.27;;
41817;SDS011;27493;51.730;5.294;2023-01-25T09:47:44;64.93;;;29.47;;
41817;SDS011;27493;51.730;5.294;2023-01-25T09:50:17;64.33;;;29.20;;
41817;SDS011;27493;51.730;5.294;2023-01-25T09:55:19;60.03;;;27.93;;
41817;SDS011;27493;51.730;5.294;2023-01-25T09:57:44;63.20;;;29.47;;
41817;SDS011;27493;51.730;5.294;2023-01-25T10:00:14;70.40;;;31.73;;
41817;SDS011;27493;51.730;5.294;2023-01-25T10:05:25;68.43;;;30.20;;
41817;SDS011;27493;51.730;5.294;2023-01-25T10:10:36;66.40;;;30.07;;
41817;SDS011;27493;51.730;5.294;2023-01-25T10:13:02;73.97;;;31.77;;
41817;SDS011;27493;51.730;5.294;2023-01-25T10:15:29;67.80;;;31.17;;
41817;SDS011;27493;51.730;5.294;2023-01-25T10:18:01;73.53;;;31.77;;
41817;SDS011;27493;51.730;5.294;2023-01-25T10:20:30;69.30;;;31.63;;
41817;SDS011;27493;51.730;5.294;2023-01-25T10:25:54;75.83;;;32.13;;
41817;SDS011;27493;51.730;5.294;2023-01-25T10:28:38;76.37;;;31.37;;
41817;SDS011;27493;51.730;5.294;2023-01-25T10:31:04;73.60;;;32.43;;
41817;SDS011;27493;51.730;5.294;2023-01-25T10:33:30;75.23;;;31.83;;
41817;SDS011;27493;51.730;5.294;2023-01-25T10:35:57;73.13;;;31.87;;
41817;SDS011;27493;51.730;5.294;2023-01-25T10:40:57;75.50;;;32.60;;
41817;SDS011;27493;51.730;5.294;2023-01-25T10:43:23;75.07;;;33.50;;
41817;SDS011;27493;51.730;5.294;2023-01-25T10:45:49;74.23;;;32.03;;
41817;SDS011;27493;51.730;5.294;2023-01-25T10:48:16;71.57;;;32.43;;
41817;SDS011;27493;51.730;5.294;2023-01-25T10:50:43;77.27;;;32.87;;
41817;SDS011;27493;51.730;5.294;2023-01-25T10:53:27;72.60;;;32.50;;
41817;SDS011;27493;51.730;5.294;2023-01-25T10:56:04;71.93;;;31.53;;
41817;SDS011;27493;51.730;5.294;2023-01-25T10:58:31;74.47;;;32.50;;
41817;SDS011;27493;51.730;5.294;2023-01-25T11:00:56;68.93;;;29.70;;
41817;SDS011;27493;51.730;5.294;2023-01-25T11:03:21;76.20;;;33.00;;
41817;SDS011;27493;51.730;5.294;2023-01-25T11:05:53;68.47;;;30.50;;
41817;SDS011;27493;51.730;5.294;2023-01-25T11:08:21;72.47;;;31.80;;
41817;SDS011;27493;51.730;5.294;2023-01-25T11:10:47;69.97;;;31.37;;
41817;SDS011;27493;51.730;5.294;2023-01-25T11:15:37;72.30;;;32.83;;
41817;SDS011;27493;51.730;5.294;2023-01-25T11:18:03;73.57;;;31.70;;
41817;SDS011;27493;51.730;5.294;2023-01-25T11:20:29;71.33;;;32.03;;
41817;SDS011;27493;51.730;5.294;2023-01-25T11:22:55;66.43;;;29.70;;
41817;SDS011;27493;51.730;5.294;2023-01-25T11:25:28;67.30;;;30.50;;
41817;SDS011;27493;51.730;5.294;2023-01-25T11:28:08;68.70;;;31.33;;
41817;SDS011;27493;51.730;5.294;2023-01-25T11:30:33;62.93;;;28.53;;
41817;SDS011;27493;51.730;5.294;2023-01-25T11:32:59;70.67;;;31.30;;
41817;SDS011;27493;51.730;5.294;2023-01-25T11:35:26;60.23;;;28.20;;
41817;SDS011;27493;51.730;5.294;2023-01-25T11:38:15;63.37;;;28.30;;
41817;SDS011;27493;51.730;5.294;2023-01-25T11:40:40;65.70;;;30.23;;
41817;SDS011;27493;51.730;5.294;2023-01-25T11:48:34;62.87;;;28.50;;
41817;SDS011;27493;51.730;5.294;2023-01-25T11:51:10;64.17;;;29.53;;
41817;SDS011;27493;51.730;5.294;2023-01-25T12:11:27;72.73;;;32.60;;
41817;SDS011;27493;51.730;5.294;2023-01-25T12:23:56;80.57;;;34.73;;
41817;SDS011;27493;51.730;5.294;2023-01-25T12:26:27;90.77;;;37.17;;
41817;SDS011;27493;51.730;5.294;2023-01-25T12:28:58;91.97;;;37.03;;
41817;SDS011;27493;51.730;5.294;2023-01-25T12:31:33;90.67;;;36.77;;
41817;SDS011;27493;51.730;5.294;2023-01-25T12:34:01;85.90;;;36.17;;
41817;SDS011;27493;51.730;5.294;2023-01-25T12:38:57;94.50;;;38.37;;
41817;SDS011;27493;51.730;5.294;2023-01-25T12:46:23;87.13;;;36.70;;
41817;SDS011;27493;51.730;5.294;2023-01-25T12:48:50;99.77;;;38.77;;
41817;SDS011;27493;51.730;5.294;2023-01-25T12:51:17;96.80;;;37.23;;
41817;SDS011;27493;51.730;5.294;2023-01-25T12:53:44;100.73;;;39.90;;
41817;SDS011;27493;51.730;5.294;2023-01-25T12:58:59;100.27;;;38.80;;
41817;SDS011;27493;51.730;5.294;2023-01-25T13:01:47;100.53;;;39.53;;
41817;SDS011;27493;51.730;5.294;2023-01-25T13:12:10;106.80;;;41.60;;
41817;SDS011;27493;51.730;5.294;2023-01-25T13:14:37;107.60;;;41.43;;
41817;SDS011;27493;51.730;5.294;2023-01-25T13:17:36;103.97;;;40.47;;
41817;SDS011;27493;51.730;5.294;2023-01-25T13:19:55;103.73;;;39.23;;
41817;SDS011;27493;51.730;5.294;2023-01-25T13:23:03;99.63;;;39.47;;
41817;SDS011;27493;51.730;5.294;2023-01-25T13:27:41;102.80;;;40.53;;
41817;SDS011;27493;51.730;5.294;2023-01-25T13:35:31;98.93;;;38.17;;
41817;SDS011;27493;51.730;5.294;2023-01-25T13:38:01;97.07;;;39.73;;
41817;SDS011;27493;51.730;5.294;2023-01-25T13:40:31;100.47;;;39.43;;
41817;SDS011;27493;51.730;5.294;2023-01-25T13:42:57;98.30;;;38.90;;
41817;SDS011;27493;51.730;5.294;2023-01-25T13:45:23;91.20;;;36.40;;
41817;SDS011;27493;51.730;5.294;2023-01-25T13:50:32;99.13;;;38.07;;
41817;SDS011;27493;51.730;5.294;2023-01-25T13:52:59;97.50;;;37.87;;
41817;SDS011;27493;51.730;5.294;2023-01-25T13:55:24;105.00;;;38.70;;
41817;SDS011;27493;51.730;5.294;2023-01-25T13:57:50;102.60;;;40.50;;
41817;SDS011;27493;51.730;5.294;2023-01-25T14:00:16;101.67;;;39.43;;
41817;SDS011;27493;51.730;5.294;2023-01-25T14:02:42;95.37;;;38.07;;
41817;SDS011;27493;51.730;5.294;2023-01-25T14:05:21;101.80;;;38.23;;
41817;SDS011;27493;51.730;5.294;2023-01-25T14:07:48;99.77;;;37.23;;
41817;SDS011;27493;51.730;5.294;2023-01-25T14:10:15;94.57;;;37.30;;
41817;SDS011;27493;51.730;5.294;2023-01-25T14:12:42;104.87;;;40.17;;
41817;SDS011;27493;51.730;5.294;2023-01-25T14:17:39;104.37;;;40.30;;
41817;SDS011;27493;51.730;5.294;2023-01-25T14:20:10;109.87;;;40.77;;
41817;SDS011;27493;51.730;5.294;2023-01-25T14:22:41;100.77;;;40.17;;
41817;SDS011;27493;51.730;5.294;2023-01-25T14:25:20;106.13;;;39.37;;
41817;SDS011;27493;51.730;5.294;2023-01-25T14:30:25;99.77;;;39.53;;
41817;SDS011;27493;51.730;5.294;2023-01-25T14:32:51;108.80;;;40.90;;
41817;SDS011;27493;51.730;5.294;2023-01-25T14:37:48;108.87;;;39.67;;
41817;SDS011;27493;51.730;5.294;2023-01-25T14:40:15;101.07;;;37.77;;
41817;SDS011;27493;51.730;5.294;2023-01-25T14:42:43;102.50;;;39.50;;
41817;SDS011;27493;51.730;5.294;2023-01-25T14:45:10;102.50;;;38.27;;
41817;SDS011;27493;51.730;5.294;2023-01-25T14:47:36;106.87;;;39.90;;
41817;SDS011;27493;51.730;5.294;2023-01-25T14:52:45;101.80;;;39.00;;
41817;SDS011;27493;51.730;5.294;2023-01-25T14:55:11;98.27;;;38.17;;
41817;SDS011;27493;51.730;5.294;2023-01-25T14:57:37;109.10;;;41.53;;
41817;SDS011;27493;51.730;5.294;2023-01-25T15:00:05;106.70;;;40.13;;
41817;SDS011;27493;51.730;5.294;2023-01-25T15:02:38;104.57;;;39.20;;
41817;SDS011;27493;51.730;5.294;2023-01-25T15:05:22;108.90;;;40.37;;
41817;SDS011;27493;51.730;5.294;2023-01-25T15:07:49;103.30;;;39.53;;
41817;SDS011;27493;51.730;5.294;2023-01-25T15:13:00;102.53;;;40.03;;
41817;SDS011;27493;51.730;5.294;2023-01-25T15:15:26;106.17;;;39.97;;
41817;SDS011;27493;51.730;5.294;2023-01-25T15:17:52;106.63;;;41.27;;
41817;SDS011;27493;51.730;5.294;2023-01-25T15:20:25;112.43;;;41.83;;
41817;SDS011;27493;51.730;5.294;2023-01-25T15:22:50;111.00;;;41.97;;
41817;SDS011;27493;51.730;5.294;2023-01-25T15:25:15;117.00;;;42.93;;
41817;SDS011;27493;51.730;5.294;2023-01-25T15:27:41;112.80;;;40.93;;
41817;SDS011;27493;51.730;5.294;2023-01-25T15:30:10;114.43;;;40.20;;
41817;SDS011;27493;51.730;5.294;2023-01-25T15:32:36;107.43;;;40.43;;
41817;SDS011;27493;51.730;5.294;2023-01-25T15:35:01;108.73;;;38.57;;
41817;SDS011;27493;51.730;5.294;2023-01-25T15:37:26;105.27;;;38.73;;
41817;SDS011;27493;51.730;5.294;2023-01-25T15:39:51;109.90;;;40.60;;
41817;SDS011;27493;51.730;5.294;2023-01-25T15:42:17;120.93;;;42.00;;
41817;SDS011;27493;51.730;5.294;2023-01-25T15:44:42;114.43;;;39.53;;
41817;SDS011;27493;51.730;5.294;2023-01-25T15:47:07;127.38;;;48.22;;
41817;SDS011;27493;51.730;5.294;2023-01-25T15:49:33;114.97;;;42.93;;
41817;SDS011;27493;51.730;5.294;2023-01-25T15:52:00;117.40;;;44.00;;
41817;SDS011;27493;51.730;5.294;2023-01-25T15:54:26;118.37;;;41.33;;
41817;SDS011;27493;51.730;5.294;2023-01-25T15:56:53;116.73;;;42.13;;
41817;SDS011;27493;51.730;5.294;2023-01-25T15:59:19;118.33;;;41.77;;
41817;SDS011;27493;51.730;5.294;2023-01-25T16:01:44;120.37;;;41.57;;
41817;SDS011;27493;51.730;5.294;2023-01-25T16:04:10;115.23;;;40.90;;
41817;SDS011;27493;51.730;5.294;2023-01-25T16:06:38;122.63;;;41.10;;
41817;SDS011;27493;51.730;5.294;2023-01-25T16:09:18;119.87;;;41.73;;
41817;SDS011;27493;51.730;5.294;2023-01-25T16:11:45;119.77;;;40.90;;
41817;SDS011;27493;51.730;5.294;2023-01-25T16:14:10;120.83;;;40.00;;
41817;SDS011;27493;51.730;5.294;2023-01-25T16:16:37;125.77;;;43.27;;
41817;SDS011;27493;51.730;5.294;2023-01-25T16:19:03;128.40;;;39.60;;
41817;SDS011;27493;51.730;5.294;2023-01-25T16:21:28;117.93;;;39.13;;
41817;SDS011;27493;51.730;5.294;2023-01-25T16:23:53;119.60;;;39.70;;
41817;SDS011;27493;51.730;5.294;2023-01-25T16:26:25;125.47;;;41.07;;
41817;SDS011;27493;51.730;5.294;2023-01-25T16:28:51;125.83;;;40.83;;
41817;SDS011;27493;51.730;5.294;2023-01-25T16:31:17;119.07;;;39.87;;
41817;SDS011;27493;51.730;5.294;2023-01-25T16:33:42;115.13;;;38.23;;
41817;SDS011;27493;51.730;5.294;2023-01-25T16:36:16;125.03;;;40.30;;
41817;SDS011;27493;51.730;5.294;2023-01-25T16:38:41;122.30;;;38.83;;
41817;SDS011;27493;51.730;5.294;2023-01-25T16:41:07;122.63;;;41.03;;
41817;SDS011;27493;51.730;5.294;2023-01-25T16:43:36;120.07;;;39.03;;
41817;SDS011;27493;51.730;5.294;2023-01-25T16:46:02;130.67;;;40.50;;
41817;SDS011;27493;51.730;5.294;2023-01-25T16:48:27;125.97;;;38.47;;
41817;SDS011;27493;51.730;5.294;2023-01-25T16:50:52;121.40;;;39.10;;
41817;SDS011;27493;51.730;5.294;2023-01-25T16:53:17;122.47;;;38.50;;
41817;SDS011;27493;51.730;5.294;2023-01-25T16:55:43;120.10;;;39.87;;
41817;SDS011;27493;51.730;5.294;2023-01-25T16:58:08;143.60;;;43.23;;
41817;SDS011;27493;51.730;5.294;2023-01-25T17:00:33;118.20;;;38.73;;
41817;SDS011;27493;51.730;5.294;2023-01-25T17:02:58;115.80;;;37.77;;
41817;SDS011;27493;51.730;5.294;2023-01-25T17:05:24;113.27;;;37.33;;
41817;SDS011;27493;51.730;5.294;2023-01-25T17:07:49;126.47;;;38.53;;
41817;SDS011;27493;51.730;5.294;2023-01-25T17:10:15;124.00;;;40.30;;